Arlington Heights, Illinois
Current Conditions -  °F | °C
As of 11:52 AM on Sunday 21 Dec 2014 (Local Time) from KPWK Reporting Station
Haze Haze  
Wind Chill: 28°   Ceiling: 2600
Heat Index: 35°   Visibility: 6mi
Dew Point: 28°   Wind: 9mph
Humidity: 76%   Direction: 170°S
Pressure: 30.16"   Gusts: NA
Location:  42.14°N, 87.99°W
Report Text: KPWK 211752Z 17008KT 6SM HZ OVC026 02/M02 A3016 RMK AO2 SLP219 T00171022 10017 20006 58016
Loading
Personal Weather Stations






























Interactive Weather Map New forecast layout! Learn more

10-Day Weather Forecast

Advertisements
Track Severe Weather on mobile